createdAt,value
2018-07-19T00:00:32.242Z,4.40
2018-07-19T00:03:01.934Z,3.83
2018-07-19T00:05:31.846Z,4.23
2018-07-19T00:08:01.314Z,4.17
2018-07-19T00:10:30.763Z,3.83
2018-07-19T00:13:00.204Z,5.07
2018-07-19T00:15:29.708Z,3.83
2018-07-19T00:17:59.228Z,3.60
2018-07-19T00:20:29.298Z,3.50
2018-07-19T00:22:58.733Z,3.40
2018-07-19T00:25:28.144Z,3.70
2018-07-19T00:27:57.558Z,3.70
2018-07-19T00:30:26.999Z,3.53
2018-07-19T00:32:56.458Z,3.80
2018-07-19T00:35:26.747Z,3.60
2018-07-19T00:37:56.236Z,3.87
2018-07-19T00:40:25.837Z,3.83
2018-07-19T00:42:55.361Z,3.50
2018-07-19T00:45:24.840Z,3.73
2018-07-19T00:47:54.269Z,3.70
2018-07-19T00:50:23.727Z,3.60
2018-07-19T00:52:53.170Z,4.00
2018-07-19T00:55:22.617Z,3.60
2018-07-19T00:57:52.062Z,3.80
2018-07-19T01:00:21.458Z,4.37
2018-07-19T01:02:50.580Z,3.87
2018-07-19T01:05:20.582Z,3.70
2018-07-19T01:07:49.991Z,3.40
2018-07-19T01:10:19.425Z,3.60
2018-07-19T01:12:48.902Z,3.50
2018-07-19T01:15:18.103Z,3.67
2018-07-19T01:17:47.532Z,3.80
2018-07-19T01:20:16.917Z,3.53
2018-07-19T01:22:46.476Z,3.37
2018-07-19T01:25:16.088Z,3.33
2018-07-19T01:27:45.515Z,4.03
2018-07-19T01:30:15.033Z,3.80
2018-07-19T01:32:44.498Z,3.97
2018-07-19T01:35:13.935Z,4.00
2018-07-19T01:37:43.410Z,3.53
2018-07-19T01:40:12.847Z,3.73
2018-07-19T01:42:44.368Z,3.53
2018-07-19T01:45:14.396Z,3.60
2018-07-19T01:47:44.064Z,3.57
2018-07-19T01:50:13.650Z,4.30
2018-07-19T01:52:43.435Z,3.73
2018-07-19T01:55:14.909Z,4.20
2018-07-19T01:57:44.313Z,3.73
2018-07-19T02:00:13.493Z,4.20
2018-07-19T02:02:42.644Z,4.30
2018-07-19T02:05:12.265Z,4.13
2018-07-19T02:07:41.698Z,3.50
2018-07-19T02:10:11.194Z,3.70
2018-07-19T02:12:40.717Z,4.30
2018-07-19T02:15:10.206Z,3.67
2018-07-19T02:17:39.655Z,4.20
2018-07-19T02:20:09.665Z,3.60
2018-07-19T02:22:39.122Z,4.00
2018-07-19T02:25:09.274Z,4.10
2018-07-19T02:27:38.728Z,4.33
2018-07-19T02:30:08.153Z,3.63
2018-07-19T02:32:37.620Z,4.30
2018-07-19T02:35:07.187Z,4.47
2018-07-19T02:37:36.626Z,3.70
2018-07-19T02:40:06.430Z,5.27
2018-07-19T02:42:37.080Z,4.10
2018-07-19T02:45:07.576Z,4.30
2018-07-19T02:47:37.069Z,4.70
2018-07-19T02:50:06.776Z,4.30
2018-07-19T02:52:36.183Z,4.33
2018-07-19T02:55:05.659Z,3.87
2018-07-19T02:57:35.091Z,4.43
2018-07-19T03:00:05.325Z,4.80
2018-07-19T03:02:35.425Z,3.77
2018-07-19T03:05:05.166Z,3.73
2018-07-19T03:07:34.596Z,3.67
2018-07-19T03:10:04.341Z,4.00
2018-07-19T03:12:33.707Z,4.20
2018-07-19T03:15:03.141Z,3.97
2018-07-19T03:17:33.625Z,4.00
2018-07-19T03:20:03.066Z,4.10
2018-07-19T03:22:32.569Z,4.47
2018-07-19T03:25:01.991Z,4.17
2018-07-19T03:27:31.484Z,4.80
2018-07-19T03:30:00.923Z,4.27
2018-07-19T03:32:30.367Z,3.93
2018-07-19T03:34:59.515Z,4.10
2018-07-19T03:37:28.883Z,4.50
2018-07-19T03:39:58.332Z,3.93
2018-07-19T03:42:27.781Z,3.60
2018-07-19T03:44:57.237Z,4.20
2018-07-19T03:47:27.850Z,3.73
2018-07-19T03:49:58.893Z,3.97
2018-07-19T03:52:28.430Z,4.20
2018-07-19T03:54:58.069Z,4.53
2018-07-19T03:57:28.077Z,3.90
2018-07-19T03:59:57.510Z,4.37
2018-07-19T04:02:27.493Z,4.10
2018-07-19T04:04:56.871Z,4.60
2018-07-19T04:07:26.415Z,3.87
2018-07-19T04:09:56.287Z,7.00
2018-07-19T04:12:25.707Z,4.10
2018-07-19T04:14:55.095Z,4.30
2018-07-19T04:17:24.599Z,4.03
2018-07-19T04:19:54.613Z,4.73
2018-07-19T04:22:24.166Z,4.30
2018-07-19T04:24:53.832Z,4.77
2018-07-19T04:27:23.266Z,4.40
2018-07-19T04:29:58.146Z,3.50
2018-07-19T04:32:28.295Z,4.07
2018-07-19T04:34:57.771Z,4.40
2018-07-19T04:37:27.266Z,4.80
2018-07-19T04:39:56.438Z,4.50
2018-07-19T04:42:25.878Z,4.40
2018-07-19T04:44:55.004Z,4.00
2018-07-19T04:47:24.481Z,8.13
2018-07-19T04:49:53.955Z,8.60
2018-07-19T04:52:23.504Z,5.37
2018-07-19T04:54:52.960Z,3.40
2018-07-19T04:57:22.366Z,3.87
2018-07-19T04:59:51.830Z,3.80
2018-07-19T05:02:21.666Z,4.03
2018-07-19T05:04:51.166Z,4.60
2018-07-19T05:07:20.626Z,4.17
2018-07-19T05:09:50.189Z,4.50
2018-07-19T05:12:19.670Z,4.20
2018-07-19T05:14:49.107Z,5.33
2018-07-19T05:17:18.598Z,4.67
2018-07-19T05:19:48.048Z,4.17
2018-07-19T05:22:17.506Z,3.97
2018-07-19T05:24:46.941Z,4.40
2018-07-19T05:27:16.400Z,4.43
2018-07-19T05:29:45.853Z,4.60
2018-07-19T05:32:15.325Z,4.77
2018-07-19T05:34:44.723Z,4.50
2018-07-19T05:37:14.242Z,4.27
2018-07-19T05:39:44.335Z,4.17
2018-07-19T05:42:13.786Z,4.80
2018-07-19T05:44:43.256Z,4.53
2018-07-19T05:47:12.853Z,4.27
2018-07-19T05:49:43.191Z,3.90
2018-07-19T05:52:12.693Z,4.53
2018-07-19T05:54:42.144Z,4.30
2018-07-19T05:57:11.811Z,4.17
2018-07-19T05:59:41.289Z,4.87
2018-07-19T06:02:10.705Z,4.40
2018-07-19T06:04:40.257Z,4.80
2018-07-19T06:07:09.883Z,4.70
2018-07-19T06:09:39.365Z,4.57
2018-07-19T06:12:08.814Z,4.80
2018-07-19T06:14:38.272Z,4.70
2018-07-19T06:17:08.635Z,4.23
2018-07-19T06:19:38.090Z,3.80
2018-07-19T06:22:07.518Z,4.70
2018-07-19T06:24:36.959Z,4.70
2018-07-19T06:27:06.539Z,4.30
2018-07-19T06:29:36.008Z,3.70
2018-07-19T06:32:06.666Z,4.90
2018-07-19T06:34:36.111Z,4.70
2018-07-19T06:37:06.093Z,4.23
2018-07-19T06:39:35.503Z,4.80
2018-07-19T06:42:04.998Z,4.07
2018-07-19T06:44:34.622Z,4.73
2018-07-19T06:47:04.733Z,4.90
2018-07-19T06:49:34.210Z,4.33
2018-07-19T06:52:03.617Z,5.30
2018-07-19T06:54:33.020Z,5.13
2018-07-19T06:57:02.488Z,4.67
2018-07-19T06:59:31.974Z,4.73
2018-07-19T07:02:01.576Z,3.60
2018-07-19T07:04:31.037Z,3.83
2018-07-19T07:07:00.530Z,4.33
2018-07-19T07:09:29.947Z,3.30
2018-07-19T07:11:59.439Z,3.50
2018-07-19T07:14:28.881Z,3.50
2018-07-19T07:16:58.331Z,3.37
2018-07-19T07:19:27.804Z,3.10
2018-07-19T07:21:57.199Z,2.67
2018-07-19T07:24:26.335Z,3.70
2018-07-19T07:26:55.786Z,3.00
2018-07-19T07:29:25.356Z,3.40
2018-07-19T07:31:54.793Z,3.40
2018-07-19T07:34:24.372Z,3.47
2018-07-19T07:36:53.905Z,3.20
2018-07-19T07:39:23.089Z,3.00
2018-07-19T07:41:53.160Z,3.80
2018-07-19T07:44:22.604Z,2.83
2018-07-19T07:46:52.011Z,5.23
2018-07-19T07:49:21.488Z,3.60
2018-07-19T07:51:50.976Z,3.60
2018-07-19T07:54:20.544Z,2.87
2018-07-19T07:56:49.712Z,3.30
2018-07-19T07:59:20.117Z,2.90
2018-07-19T08:01:49.213Z,3.50
2018-07-19T08:04:18.687Z,3.30
2018-07-19T08:06:48.152Z,3.10
2018-07-19T08:09:17.626Z,2.90
2018-07-19T08:11:47.209Z,3.30
2018-07-19T08:14:16.713Z,3.70
2018-07-19T08:16:46.220Z,3.00
2018-07-19T08:19:15.701Z,3.00
2018-07-19T08:21:45.241Z,3.23
2018-07-19T08:24:14.708Z,3.00
2018-07-19T08:26:44.189Z,3.10
2018-07-19T08:29:13.635Z,2.83
2018-07-19T08:31:43.219Z,3.17
2018-07-19T08:34:12.690Z,2.50
2018-07-19T08:36:42.199Z,2.70
2018-07-19T08:39:13.700Z,3.10
2018-07-19T08:41:44.860Z,3.10
2018-07-19T08:44:14.310Z,3.33
2018-07-19T08:46:43.774Z,2.83
2018-07-19T08:49:13.190Z,3.10
2018-07-19T08:51:43.838Z,2.90
2018-07-19T08:54:13.286Z,3.27
2018-07-19T08:56:42.785Z,3.07
2018-07-19T08:59:12.208Z,2.73
2018-07-19T09:01:41.678Z,2.53
2018-07-19T09:04:11.169Z,2.53
2018-07-19T09:06:40.624Z,2.57
2018-07-19T09:09:10.939Z,3.00
2018-07-19T09:11:40.441Z,3.10
2018-07-19T09:14:09.899Z,3.00
2018-07-19T09:16:39.295Z,2.90
2018-07-19T09:19:08.812Z,3.27
2018-07-19T09:21:38.357Z,2.70
2018-07-19T09:24:08.355Z,3.07
2018-07-19T09:26:37.900Z,2.90
2018-07-19T09:29:07.310Z,2.90
2018-07-19T09:31:36.771Z,2.50
2018-07-19T09:34:06.537Z,3.03
2018-07-19T09:36:35.984Z,2.90
2018-07-19T09:39:10.406Z,2.70
2018-07-19T09:41:40.924Z,2.63
2018-07-19T09:44:10.629Z,3.13
2018-07-19T09:46:40.168Z,3.13
2018-07-19T09:49:09.570Z,3.20
2018-07-19T09:51:38.996Z,3.23
2018-07-19T09:54:08.437Z,2.80
2018-07-19T09:56:37.876Z,3.13
2018-07-19T09:59:07.273Z,3.27
2018-07-19T10:01:36.704Z,2.80
2018-07-19T10:04:07.077Z,2.80
2018-07-19T10:06:36.509Z,3.17
2018-07-19T10:09:07.416Z,2.80
2018-07-19T10:11:36.538Z,2.93
2018-07-19T10:14:06.260Z,3.07
2018-07-19T10:16:35.672Z,2.83
2018-07-19T10:19:05.232Z,2.80
2018-07-19T10:21:34.784Z,2.80
2018-07-19T10:24:04.213Z,2.80
2018-07-19T10:26:33.702Z,2.80
2018-07-19T10:29:03.059Z,2.87
2018-07-19T10:31:32.205Z,2.80
2018-07-19T10:34:01.754Z,2.13
2018-07-19T10:36:31.202Z,2.80
2018-07-19T10:39:00.662Z,2.70
2018-07-19T10:41:30.810Z,2.40
2018-07-19T10:44:00.314Z,2.80
2018-07-19T10:46:29.821Z,2.77
2018-07-19T10:48:59.291Z,2.60
2018-07-19T10:51:28.779Z,2.23
2018-07-19T10:53:58.186Z,2.73
2018-07-19T10:56:27.675Z,3.07
2018-07-19T10:58:57.171Z,2.63
2018-07-19T11:01:26.610Z,2.70
2018-07-19T11:03:55.904Z,2.80
2018-07-19T11:06:25.378Z,2.80
2018-07-19T11:08:54.559Z,3.00
2018-07-19T11:11:23.981Z,2.70
2018-07-19T11:13:53.147Z,2.43
2018-07-19T11:16:22.666Z,2.53
2018-07-19T11:18:52.204Z,2.73
2018-07-19T11:21:21.748Z,2.60
2018-07-19T11:23:51.448Z,2.70
2018-07-19T11:26:20.920Z,3.00
2018-07-19T11:28:50.380Z,2.70
2018-07-19T11:31:19.846Z,2.60
2018-07-19T11:33:49.304Z,2.70
2018-07-19T11:36:18.808Z,2.50
2018-07-19T11:38:48.251Z,2.90
2018-07-19T11:41:17.866Z,2.90
2018-07-19T11:43:47.256Z,3.27
2018-07-19T11:46:16.730Z,3.03
2018-07-19T11:48:46.162Z,3.17
2018-07-19T11:51:15.788Z,2.90
2018-07-19T11:53:45.296Z,2.47
2018-07-19T11:56:15.622Z,2.80
2018-07-19T11:58:45.159Z,2.77
2018-07-19T12:01:14.594Z,2.40
2018-07-19T12:03:44.107Z,3.10
2018-07-19T12:06:13.636Z,2.80
2018-07-19T12:08:43.061Z,3.03
2018-07-19T12:11:13.074Z,2.80
2018-07-19T12:13:42.658Z,3.10
2018-07-19T12:16:12.511Z,2.30
2018-07-19T12:18:41.963Z,4.97
2018-07-19T12:21:11.477Z,3.00
2018-07-19T12:23:40.591Z,2.63
2018-07-19T12:26:10.031Z,2.70
2018-07-19T12:28:39.475Z,3.57
2018-07-19T12:31:08.933Z,2.83
2018-07-19T12:33:38.348Z,2.90
2018-07-19T12:36:07.984Z,3.13
2018-07-19T12:38:37.441Z,3.17
2018-07-19T12:41:06.992Z,2.80
2018-07-19T12:43:36.445Z,2.77
2018-07-19T12:46:05.885Z,3.00
2018-07-19T12:48:35.411Z,3.00
2018-07-19T12:51:04.937Z,2.93
2018-07-19T12:53:34.872Z,2.60
2018-07-19T12:56:04.408Z,2.63
2018-07-19T12:58:34.140Z,2.77
2018-07-19T13:01:03.558Z,4.77
2018-07-19T13:03:33.004Z,3.20
2018-07-19T13:06:02.558Z,3.13
2018-07-19T13:08:32.193Z,9.30
2018-07-19T13:11:01.709Z,3.10
2018-07-19T13:13:31.823Z,2.57
2018-07-19T13:16:01.723Z,3.13
2018-07-19T13:18:31.317Z,2.90
2018-07-19T13:21:00.903Z,3.20
2018-07-19T13:23:30.426Z,2.60
2018-07-19T13:25:59.900Z,2.37
2018-07-19T13:28:29.340Z,2.40
2018-07-19T13:30:58.809Z,2.67
2018-07-19T13:33:28.157Z,2.60
2018-07-19T13:35:57.608Z,2.90
2018-07-19T13:38:26.774Z,2.97
2018-07-19T13:40:56.437Z,2.80
2018-07-19T13:43:25.849Z,2.47
2018-07-19T13:45:55.433Z,2.63
2018-07-19T13:48:24.586Z,2.30
2018-07-19T13:50:54.093Z,3.00
2018-07-19T13:53:41.730Z,3.40
2018-07-19T13:56:11.220Z,3.07
2018-07-19T13:58:40.378Z,2.87
2018-07-19T14:01:09.516Z,2.60
2018-07-19T14:03:39.008Z,3.00
2018-07-19T14:06:08.514Z,2.67
2018-07-19T14:08:38.017Z,3.83
2018-07-19T14:11:07.468Z,4.43
2018-07-19T14:13:36.965Z,3.20
2018-07-19T14:16:06.467Z,2.70
2018-07-19T14:18:36.088Z,3.13
2018-07-19T14:21:05.491Z,3.10
2018-07-19T14:23:34.955Z,3.03
2018-07-19T14:26:04.446Z,2.87
2018-07-19T14:28:33.953Z,2.90
2018-07-19T14:31:03.425Z,3.00
2018-07-19T14:33:32.976Z,3.37
2018-07-19T14:36:02.515Z,2.97
2018-07-19T14:38:31.972Z,2.57
2018-07-19T14:41:01.135Z,2.90
2018-07-19T14:43:30.588Z,2.43
2018-07-19T14:46:00.050Z,3.80
2018-07-19T14:48:29.465Z,5.30
2018-07-19T14:50:58.621Z,5.27
2018-07-19T14:53:28.149Z,2.90
2018-07-19T14:55:57.551Z,2.70
2018-07-19T14:58:26.989Z,2.60
2018-07-19T15:00:56.154Z,4.70
2018-07-19T15:03:25.529Z,3.30
2018-07-19T15:05:55.019Z,3.23
2018-07-19T15:08:24.525Z,2.73
2018-07-19T15:10:54.046Z,4.67
2018-07-19T15:13:23.457Z,2.57
2018-07-19T15:15:53.023Z,2.93
2018-07-19T15:18:22.470Z,3.43
2018-07-19T15:20:51.899Z,2.50
2018-07-19T15:23:21.385Z,2.70
2018-07-19T15:25:50.908Z,2.40
2018-07-19T15:28:20.366Z,3.50
2018-07-19T15:30:49.833Z,2.60
2018-07-19T15:33:19.315Z,2.87
2018-07-19T15:35:48.753Z,3.13
2018-07-19T15:38:18.148Z,3.40
2018-07-19T15:40:47.671Z,2.60
2018-07-19T15:43:17.153Z,2.60
2018-07-19T15:45:46.597Z,2.90
2018-07-19T15:48:16.020Z,2.67
2018-07-19T15:50:45.404Z,2.87
2018-07-19T15:53:14.855Z,2.83
2018-07-19T15:55:44.265Z,2.40
2018-07-19T15:58:13.644Z,3.03
2018-07-19T16:00:43.077Z,3.07
2018-07-19T16:03:12.509Z,2.37
2018-07-19T16:05:41.964Z,3.30
2018-07-19T16:08:11.447Z,2.83
2018-07-19T16:10:40.879Z,2.83
2018-07-19T16:13:10.364Z,2.77
2018-07-19T16:15:39.752Z,2.53
2018-07-19T16:18:09.227Z,2.30
2018-07-19T16:20:38.652Z,5.37
2018-07-19T16:23:08.087Z,4.67
2018-07-19T16:25:37.544Z,7.80
2018-07-19T16:28:07.065Z,2.93
2018-07-19T16:30:36.485Z,2.70
2018-07-19T16:33:06.062Z,2.70
2018-07-19T16:35:35.522Z,2.80
2018-07-19T16:38:04.926Z,2.60
2018-07-19T16:40:34.340Z,2.90
2018-07-19T16:43:03.844Z,2.70
2018-07-19T16:45:33.248Z,2.60
2018-07-19T16:48:02.613Z,2.63
2018-07-19T16:50:32.054Z,2.70
2018-07-19T16:53:01.452Z,2.53
2018-07-19T16:55:30.933Z,3.43
2018-07-19T16:58:00.369Z,2.87
2018-07-19T17:00:29.837Z,2.90
2018-07-19T17:02:59.206Z,3.03
2018-07-19T17:05:28.641Z,3.17
2018-07-19T17:07:58.080Z,3.03
2018-07-19T17:10:27.519Z,2.87
2018-07-19T17:12:56.985Z,3.20
2018-07-19T17:15:26.484Z,2.80
2018-07-19T17:17:55.892Z,2.10
2018-07-19T17:20:25.331Z,2.70
2018-07-19T17:22:54.788Z,3.13
2018-07-19T17:25:24.238Z,2.67
2018-07-19T17:27:53.712Z,3.03
2018-07-19T17:30:23.144Z,2.90
2018-07-19T17:32:52.653Z,2.63
2018-07-19T17:35:22.202Z,5.13
2018-07-19T17:37:51.753Z,3.07
2018-07-19T17:40:21.278Z,2.83
2018-07-19T17:42:50.764Z,2.80
2018-07-19T17:45:20.240Z,2.90
2018-07-19T17:47:49.656Z,2.60
2018-07-19T17:50:19.085Z,2.93
2018-07-19T17:52:48.505Z,2.93
2018-07-19T17:55:17.964Z,6.40
2018-07-19T17:57:47.398Z,9.77
2018-07-19T18:00:16.883Z,17.30
2018-07-19T18:02:46.421Z,42.50
2018-07-19T18:05:15.930Z,22.47
2018-07-19T18:07:45.571Z,32.27
2018-07-19T18:10:15.013Z,13.30
2018-07-19T18:12:44.454Z,42.90
2018-07-19T18:15:13.980Z,12.83
2018-07-19T18:17:43.400Z,8.10
2018-07-19T18:20:12.888Z,4.47
2018-07-19T18:22:42.326Z,3.70
2018-07-19T18:25:11.818Z,3.30
2018-07-19T18:27:41.289Z,2.70
2018-07-19T18:30:10.717Z,3.20
2018-07-19T18:32:40.236Z,3.53
2018-07-19T18:35:09.689Z,3.63
2018-07-19T18:37:39.133Z,3.37
2018-07-19T18:40:08.628Z,3.13
2018-07-19T18:42:39.422Z,3.10
2018-07-19T18:45:08.957Z,2.97
2018-07-19T18:47:38.388Z,3.27
2018-07-19T18:50:07.876Z,4.00
2018-07-19T18:52:37.336Z,3.50
2018-07-19T18:55:07.761Z,3.40
2018-07-19T18:57:37.205Z,4.10
2018-07-19T19:00:06.981Z,3.23
2018-07-19T19:02:36.445Z,3.70
2018-07-19T19:05:05.948Z,3.57
2018-07-19T19:07:35.405Z,3.73
2018-07-19T19:10:05.009Z,3.77
2018-07-19T19:12:34.417Z,3.30
2018-07-19T19:15:03.905Z,3.90
2018-07-19T19:17:33.383Z,3.87
2018-07-19T19:20:03.007Z,3.90
2018-07-19T19:22:32.397Z,3.80
2018-07-19T19:25:01.836Z,3.23
2018-07-19T19:27:31.346Z,3.60
2018-07-19T19:30:00.788Z,3.60
2018-07-19T19:32:30.275Z,3.47
2018-07-19T19:34:59.669Z,3.70
2018-07-19T19:37:29.118Z,3.77
2018-07-19T19:39:58.653Z,4.10
2018-07-19T19:42:28.133Z,3.87
2018-07-19T19:44:57.556Z,4.07
2018-07-19T19:47:27.036Z,3.47
2018-07-19T19:49:56.572Z,3.97
2018-07-19T19:52:27.028Z,3.73
2018-07-19T19:54:56.501Z,3.53
2018-07-19T19:57:25.929Z,3.50
2018-07-19T19:59:55.372Z,3.90
2018-07-19T20:02:24.841Z,3.93
2018-07-19T20:04:54.287Z,3.70
2018-07-19T20:07:23.800Z,8.77
2018-07-19T20:09:53.568Z,3.67
2018-07-19T20:12:23.051Z,4.60
2018-07-19T20:14:52.466Z,4.47
2018-07-19T20:17:22.207Z,4.20
2018-07-19T20:19:51.873Z,4.13
2018-07-19T20:22:21.349Z,3.93
2018-07-19T20:24:50.816Z,4.77
2018-07-19T20:27:20.249Z,4.70
2018-07-19T20:29:49.690Z,4.40
2018-07-19T20:32:19.195Z,3.83
2018-07-19T20:34:48.621Z,3.73
2018-07-19T20:37:18.056Z,4.30
2018-07-19T20:39:47.488Z,4.77
2018-07-19T20:42:16.900Z,4.10
2018-07-19T20:44:46.397Z,4.40
2018-07-19T20:47:15.942Z,4.70
2018-07-19T20:49:45.402Z,3.53
2018-07-19T20:52:14.906Z,6.50
2018-07-19T20:54:44.470Z,7.70
2018-07-19T20:57:13.924Z,6.73
2018-07-19T20:59:43.361Z,5.23
2018-07-19T21:02:12.903Z,5.17
2018-07-19T21:04:42.358Z,4.73
2018-07-19T21:07:11.847Z,5.13
2018-07-19T21:09:41.286Z,5.20
2018-07-19T21:12:10.751Z,5.80
2018-07-19T21:14:40.263Z,7.93
2018-07-19T21:17:09.820Z,6.47
2018-07-19T21:19:39.216Z,6.23
2018-07-19T21:22:08.661Z,5.83
2018-07-19T21:24:38.091Z,5.33
2018-07-19T21:27:07.564Z,5.77
2018-07-19T21:29:37.004Z,6.30
2018-07-19T21:32:06.521Z,5.77
2018-07-19T21:34:35.999Z,6.90
2018-07-19T21:37:05.506Z,6.70
2018-07-19T21:39:35.011Z,6.97
2018-07-19T21:42:04.458Z,5.90
2018-07-19T21:44:34.005Z,5.80
2018-07-19T21:47:03.462Z,5.67
2018-07-19T21:49:32.870Z,5.20
2018-07-19T21:52:02.324Z,5.40
2018-07-19T21:54:31.809Z,5.80
2018-07-19T21:57:01.220Z,4.90
2018-07-19T21:59:30.616Z,4.90
2018-07-19T22:02:00.039Z,5.13
2018-07-19T22:04:29.436Z,5.00
2018-07-19T22:06:58.955Z,4.90
2018-07-19T22:09:28.464Z,4.57
2018-07-19T22:11:57.999Z,5.70
2018-07-19T22:14:27.389Z,4.90
2018-07-19T22:16:56.934Z,4.70
2018-07-19T22:19:26.313Z,4.80
2018-07-19T22:21:55.800Z,5.23
2018-07-19T22:24:25.216Z,4.60
2018-07-19T22:26:54.665Z,5.03
2018-07-19T22:29:24.132Z,4.73
2018-07-19T22:31:53.581Z,4.90
2018-07-19T22:34:23.023Z,4.80
2018-07-19T22:36:52.443Z,4.97
2018-07-19T22:39:21.843Z,5.17
2018-07-19T22:41:51.379Z,5.23
2018-07-19T22:44:20.869Z,4.60
2018-07-19T22:46:50.301Z,4.80
2018-07-19T22:49:19.790Z,5.07
2018-07-19T22:51:49.283Z,5.40
2018-07-19T22:54:18.738Z,4.67
2018-07-19T22:56:48.222Z,5.80
2018-07-19T22:59:17.688Z,4.90
2018-07-19T23:01:47.125Z,4.90
2018-07-19T23:04:16.603Z,4.43
2018-07-19T23:06:46.090Z,5.43
2018-07-19T23:09:15.482Z,5.73
2018-07-19T23:11:44.881Z,5.47
2018-07-19T23:14:14.333Z,5.03
2018-07-19T23:16:43.761Z,5.30
2018-07-19T23:19:13.256Z,5.20
2018-07-19T23:21:42.662Z,5.23
2018-07-19T23:24:12.154Z,5.13
2018-07-19T23:26:41.608Z,4.40
2018-07-19T23:29:11.108Z,5.27
2018-07-19T23:31:40.569Z,5.67
2018-07-19T23:34:10.030Z,5.20
2018-07-19T23:36:55.047Z,4.70
2018-07-19T23:39:28.257Z,4.80
2018-07-19T23:42:02.816Z,4.70
2018-07-19T23:45:07.344Z,4.80
2018-07-19T23:47:38.792Z,5.00
2018-07-19T23:50:08.270Z,4.63
2018-07-19T23:52:37.803Z,4.83
2018-07-19T23:55:07.345Z,5.43
2018-07-19T23:57:36.804Z,5.37
